Time;durP1;ratioP1;P1;durP2;ratioP2;P2;SDS_P1;SDS_P2;PMS_P1;PMS_P2;Temp;Humidity;BMP_temperature;BMP_pressure;BME280_temperature;BME280_humidity;BME280_pressure;Samples;Min_cycle;Max_cycle;Signal;HPM_P1;HPM_P2
2022/04/28 00:00:40;;;;;;;6.70;4.30;;;;;;;12.96;40.68;98642.44;10007761;29;20389;-81
2022/04/28 00:06:02;;;;;;;6.40;4.57;;;;;;;12.75;41.05;98652.16;10035110;29;20054;-81
2022/04/28 00:11:22;;;;;;;7.40;4.70;;;;;;;12.56;41.25;98657.75;10035298;29;20046;-81
2022/04/28 00:16:46;;;;;;;7.68;4.43;;;;;;;12.37;41.23;98652.13;10021220;29;20049;-81
2022/04/28 00:22:08;;;;;;;8.93;5.30;;;;;;;12.23;41.65;98648.97;10018473;29;20050;-81
2022/04/28 00:27:29;;;;;;;8.02;5.28;;;;;;;12.09;41.86;98654.25;10044597;29;20075;-82
2022/04/28 00:32:52;;;;;;;7.60;5.13;;;;;;;11.98;42.00;98646.41;10003549;29;20054;-81
2022/04/28 00:38:16;;;;;;;9.20;5.97;;;;;;;11.86;42.54;98651.06;10015494;29;20058;-81
2022/04/28 00:43:52;;;;;;;8.13;5.47;;;;;;;11.76;42.90;98648.91;10016844;29;20053;-81
2022/04/28 00:54:53;;;;;;;8.82;5.57;;;;;;;11.57;43.03;98651.63;9995206;29;20063;-81
2022/04/28 01:00:15;;;;;;;9.40;5.57;;;;;;;11.49;43.51;98651.00;9980403;29;20397;-81
2022/04/28 01:05:39;;;;;;;7.03;5.63;;;;;;;11.41;43.61;98650.38;9973668;29;20058;-81
2022/04/28 01:11:01;;;;;;;8.45;6.00;;;;;;;11.35;43.70;98650.63;9988034;29;20042;-81
2022/04/28 01:16:24;;;;;;;;;;;;;;;11.26;45.08;98645.72;10012086;29;20568;-81
2022/04/28 01:21:45;;;;;;;6.95;5.68;;;;;;;11.19;44.52;98652.13;10003678;29;19925;-82
2022/04/28 01:27:09;;;;;;;7.70;4.88;;;;;;;11.10;44.52;98642.38;10004990;29;20050;-81
2022/04/28 01:32:30;;;;;;;8.43;5.63;;;;;;;11.02;44.81;98647.31;9987016;29;20065;-82
2022/04/28 01:37:52;;;;;;;6.60;5.10;;;;;;;10.98;44.99;98647.00;9986967;29;20050;-81
2022/04/28 01:43:14;;;;;;;7.53;5.10;;;;;;;10.98;45.22;98644.19;9983180;29;20097;-81
2022/04/28 01:48:35;;;;;;;7.03;5.40;;;;;;;10.94;45.09;98649.47;9970439;29;20095;-81
2022/04/28 02:00:26;;;;;;;9.50;5.18;;;;;;;11.11;45.05;98648.72;9964604;29;20118;-81
2022/04/28 02:05:58;;;;;;;6.78;5.13;;;;;;;11.16;45.10;98656.09;9974779;29;20046;-82
2022/04/28 02:11:22;;;;;;;7.10;5.32;;;;;;;11.13;45.46;98649.59;9972275;29;20501;-82
2022/04/28 02:17:04;;;;;;;10.35;5.25;;;;;;;11.07;45.31;98651.91;9976203;29;20071;-82
2022/04/28 02:22:36;;;;;;;7.03;5.07;;;;;;;10.95;45.69;98653.72;9972877;29;20058;-80
2022/04/28 02:27:58;;;;;;;8.40;5.57;;;;;;;10.82;46.11;98657.59;9970719;29;20047;-82
2022/04/28 02:33:19;;;;;;;7.63;5.43;;;;;;;10.63;45.85;98651.84;9970417;29;20043;-82
2022/04/28 02:38:54;;;;;;;8.13;5.38;;;;;;;10.54;46.51;98644.13;9961282;29;20042;-82
2022/04/28 02:44:18;;;;;;;7.57;5.47;;;;;;;10.50;46.98;98641.72;9958725;29;20050;-81
2022/04/28 02:49:40;;;;;;;9.73;5.40;;;;;;;10.49;46.47;98654.22;9971908;29;20050;-81
2022/04/28 02:55:03;;;;;;;9.30;5.30;;;;;;;10.37;46.72;98641.31;9959585;29;20055;-82
2022/04/28 03:00:23;;;;;;;10.35;5.38;;;;;;;10.31;46.77;98649.91;9971025;29;20062;-81
2022/04/28 03:11:35;;;;;;;7.80;4.53;;;;;;;10.18;46.68;98658.56;9974878;29;20047;-81
2022/04/28 03:16:56;;;;;;;6.10;4.57;;;;;;;10.08;46.92;98660.50;9957742;29;20046;-81
2022/04/28 03:22:16;;;;;;;6.72;4.50;;;;;;;10.00;47.23;98666.88;9982509;29;20058;-81
2022/04/28 03:27:37;;;;;;;9.73;4.47;;;;;;;9.99;47.30;98670.25;9962009;29;20054;-81
2022/04/28 03:32:57;;;;;;;6.72;4.70;;;;;;;9.98;47.25;98672.28;9977522;29;20065;-81
2022/04/28 03:38:18;;;;;;;6.65;4.53;;;;;;;9.95;47.02;98669.91;9964856;29;20083;-81
2022/04/28 03:43:39;;;;;;;7.72;4.45;;;;;;;9.91;46.93;98678.66;9976978;29;20053;-81
2022/04/28 03:49:00;;;;;;;8.63;4.53;;;;;;;9.98;47.35;98686.25;9976606;29;20409;-81
2022/04/28 03:54:21;;;;;;;6.82;4.03;;;;;;;10.00;47.17;98677.31;9976529;29;20038;-81
2022/04/28 03:59:42;;;;;;;10.15;4.07;;;;;;;10.04;47.14;98695.13;9964983;29;20513;-81
2022/04/28 04:05:21;;;;;;;6.57;3.70;;;;;;;10.08;46.86;98700.31;9981612;29;20057;-81
2022/04/28 04:10:42;;;;;;;7.80;3.58;;;;;;;10.20;46.88;98706.16;9965096;29;20405;-81
2022/04/28 04:16:03;;;;;;;6.97;3.60;;;;;;;10.32;46.93;98704.41;9976315;29;20042;-81
2022/04/28 04:21:24;;;;;;;7.75;4.15;;;;;;;10.43;46.33;98711.59;9976058;29;20076;-82
2022/04/28 04:26:46;;;;;;;5.43;3.70;;;;;;;10.59;46.63;98724.09;9979913;29;20068;-82
2022/04/28 04:32:18;;;;;;;7.63;3.80;;;;;;;10.79;46.37;98725.78;9965839;29;20071;-82
2022/04/28 04:37:45;;;;;;;8.80;3.85;;;;;;;10.99;46.19;98731.53;9978672;29;20397;-81
2022/04/28 04:43:13;;;;;;;4.90;3.55;;;;;;;11.22;46.02;98731.31;9990877;29;20058;-82
2022/04/28 04:48:35;;;;;;;5.05;3.50;;;;;;;11.62;45.80;98742.19;9978274;29;20073;-79
2022/04/28 04:54:06;;;;;;;6.30;4.30;;;;;;;12.04;45.36;98745.53;9980409;29;20494;-81
2022/04/28 04:59:27;;;;;;;7.38;4.00;;;;;;;12.68;44.97;98742.66;9963856;29;20054;-82
2022/04/28 05:04:48;;;;;;;5.13;3.45;;;;;;;13.52;44.19;98749.56;9968503;29;20043;-82
2022/04/28 05:10:33;;;;;;;6.60;3.60;;;;;;;14.29;42.70;98759.84;9976303;29;20042;-80
2022/04/28 05:15:55;;;;;;;9.55;3.45;;;;;;;15.11;42.04;98764.00;9984771;29;20122;-81
2022/04/28 05:21:26;;;;;;;6.35;3.58;;;;;;;16.57;40.92;98754.84;9999058;29;20111;-78
2022/04/28 05:27:14;;;;;;;8.70;3.50;;;;;;;22.15;37.35;98771.00;9957553;29;20083;-83
2022/04/28 05:32:44;;;;;;;6.60;2.95;;;;;;;28.64;30.68;98775.31;9908895;29;20055;-84
2022/04/28 05:38:12;;;;;;;5.45;2.63;;;;;;;33.02;25.34;98777.53;9909623;29;20079;-83
2022/04/28 05:49:14;;;;;;;3.28;2.30;;;;;;;38.17;18.66;98792.47;9900944;29;20043;-82
2022/04/28 05:54:36;;;;;;;4.32;2.55;;;;;;;34.56;16.66;98809.53;9883482;30;20039;-82
2022/04/28 05:59:57;;;;;;;5.60;2.30;;;;;;;27.74;19.66;98808.47;9883202;30;20055;-82
2022/04/28 06:05:33;;;;;;;2.35;2.13;;;;;;;28.48;21.78;98801.69;9896892;30;20055;-82
2022/04/28 06:10:58;;;;;;;6.57;2.67;;;;;;;30.56;17.96;98795.66;9883354;30;20130;-82
2022/04/28 06:16:22;;;;;;;3.92;2.33;;;;;;;26.82;18.95;98795.31;9883247;30;20433;-82
2022/04/28 06:22:07;;;;;;;3.92;2.35;;;;;;;27.29;21.15;98793.34;9888295;30;20492;-81
2022/04/28 06:27:35;;;;;;;7.40;2.08;;;;;;;37.17;15.53;98800.75;9895252;30;20062;-85
2022/04/28 06:32:57;;;;;;;3.55;1.80;;;;;;;37.81;13.39;98806.50;9906452;29;20058;-84
2022/04/28 06:38:28;;;;;;;5.22;2.00;;;;;;;42.83;10.24;98812.88;9932731;29;20046;-85
2022/04/28 06:43:50;;;;;;;3.15;1.70;;;;;;;45.31;8.69;98814.16;9918960;29;20047;-85
2022/04/28 06:49:37;;;;;;;5.78;1.98;;;;;;;46.70;6.88;98807.31;9925314;29;20043;-85
2022/04/28 06:55:17;;;;;;;4.70;1.80;;;;;;;47.07;5.87;98816.81;9923727;29;20050;-85
2022/04/28 07:00:38;;;;;;;3.47;1.60;;;;;;;48.00;5.25;98815.16;9933491;29;20521;-85
2022/04/28 07:06:47;;;;;;;1.90;1.65;;;;;;;49.72;4.55;98807.97;9944433;29;20050;-84
2022/04/28 07:12:12;;;;;;;3.87;2.00;;;;;;;49.96;3.76;98814.28;9950982;29;20548;-85
2022/04/28 07:17:52;;;;;;;7.32;1.67;;;;;;;49.35;3.46;98821.84;9940703;29;20051;-85
2022/04/28 07:23:17;;;;;;;6.38;1.40;;;;;;;49.88;3.92;98814.91;9938013;29;20426;-83
2022/04/28 07:28:41;;;;;;;7.53;1.63;;;;;;;50.99;2.69;98825.50;9941492;29;20054;-84
2022/04/28 07:34:35;;;;;;;4.30;1.30;;;;;;;50.32;2.11;98830.81;9961706;29;20047;-86
2022/04/28 07:40:15;;;;;;;28.42;4.22;;;;;;;50.37;2.74;98825.94;9942067;29;20065;-85
2022/04/28 07:45:44;;;;;;;6.20;1.60;;;;;;;51.10;2.68;98828.38;9952799;29;20189;-84
2022/04/28 07:51:11;;;;;;;3.20;1.30;;;;;;;52.24;2.16;98837.38;9950697;29;20050;-85
2022/04/28 07:56:31;;;;;;;7.40;1.42;;;;;;;50.09;2.10;98832.56;9949180;29;20058;-85
2022/04/28 08:01:56;;;;;;;4.43;1.10;;;;;;;51.27;2.28;98839.63;9949429;29;20042;-86
2022/04/28 08:07:20;;;;;;;4.90;1.33;;;;;;;52.12;1.95;98837.72;9955349;29;20446;-85
2022/04/28 08:12:49;;;;;;;3.78;0.85;;;;;;;52.36;1.72;98836.28;9991131;29;20058;-86
2022/04/28 08:18:30;;;;;;;3.47;0.88;;;;;;;51.88;1.73;98846.44;9993517;29;20054;-82
2022/04/28 08:23:53;;;;;;;3.22;1.10;;;;;;;50.33;2.24;98841.13;9998785;29;20474;-79
2022/04/28 08:29:17;;;;;;;4.03;1.05;;;;;;;51.95;1.55;98850.31;9998426;29;20089;-86
2022/04/28 08:34:46;;;;;;;3.70;0.93;;;;;;;52.22;0.77;98840.53;10010415;29;20457;-85
2022/04/28 08:40:11;;;;;;;2.00;0.87;;;;;;;49.28;1.50;98859.41;9988566;29;20043;-86
2022/04/28 08:46:50;;;;;;;2.27;0.97;;;;;;;46.54;2.34;98854.88;9969987;29;20093;-87
2022/04/28 08:51:26;;;;;;;4.70;1.13;;;;;;;42.23;3.97;98855.88;9982872;29;20291;-86
2022/04/28 08:56:53;;;;;;;2.78;0.98;;;;;;;42.11;4.18;98864.47;9960837;29;20146;-85
2022/04/28 09:02:24;;;;;;;4.57;1.20;;;;;;;37.20;5.38;98862.53;9971469;29;20045;-86
2022/04/28 09:08:02;;;;;;;3.90;1.10;;;;;;;35.15;6.91;98863.91;9960034;29;20048;-87
2022/04/28 09:14:11;;;;;;;6.63;1.30;;;;;;;38.25;6.10;98859.31;9988756;29;20047;-87
2022/04/28 09:19:40;;;;;;;2.63;1.30;;;;;;;39.03;5.71;98854.25;9969428;29;20136;-88
2022/04/28 09:25:30;;;;;;;3.60;1.63;;;;;;;37.69;6.26;98859.22;9974221;29;20051;-86
2022/04/28 09:30:52;;;;;;;6.25;1.60;;;;;;;33.44;7.54;98863.34;9982186;29;20062;-86
2022/04/28 09:36:31;;;;;;;4.10;2.40;;;;;;;30.23;9.37;98871.78;10000917;29;20050;-83
2022/04/28 09:47:48;;;;;;;4.43;1.83;;;;;;;34.17;8.58;98862.09;9979926;29;20070;-88
2022/04/28 09:53:09;;;;;;;4.05;2.35;;;;;;;34.26;9.88;98854.75;9964402;29;20042;-86
2022/04/28 09:58:51;;;;;;;4.10;1.98;;;;;;;41.77;6.39;98849.75;9973122;29;20125;-86
2022/04/28 10:04:12;;;;;;;2.65;1.63;;;;;;;45.51;3.89;98842.47;9972897;29;20378;-88
2022/04/28 10:09:54;;;;;;;2.75;1.02;;;;;;;48.04;3.40;98859.25;9990760;29;20045;-87
2022/04/28 10:15:15;;;;;;;3.78;1.38;;;;;;;47.15;3.19;98857.66;9963850;29;20045;-89
2022/04/28 10:21:08;;;;;;;3.10;1.05;;;;;;;48.77;2.50;98844.59;9975150;29;20046;-86
2022/04/28 10:33:14;;;;;;;1.80;0.85;;;;;;;38.13;5.55;98847.25;10000226;29;20069;-86
2022/04/28 10:38:42;;;;;;;2.55;1.20;;;;;;;33.95;7.54;98845.63;9992039;29;20645;-86
2022/04/28 10:44:16;;;;;;;5.40;1.65;;;;;;;36.40;7.57;98851.78;9972662;29;20045;-86
2022/04/28 10:49:43;;;;;;;4.72;1.25;;;;;;;43.46;5.00;98838.56;9963580;29;20081;-87
2022/04/28 10:55:05;;;;;;;4.70;1.08;;;;;;;45.57;3.88;98853.91;9959962;29;20042;-86
2022/04/28 11:00:33;;;;;;;2.30;1.20;;;;;;;38.25;5.26;98850.56;9960808;29;20053;-87
2022/04/28 11:05:54;;;;;;;2.67;1.20;;;;;;;33.53;7.11;98843.75;9970512;29;20045;-85
2022/04/28 11:11:16;;;;;;;3.15;1.88;;;;;;;32.48;8.39;98842.78;9959617;29;20132;-85
2022/04/28 11:16:36;;;;;;;2.78;1.90;;;;;;;29.62;10.56;98831.69;9959248;29;20043;-85
2022/04/28 11:21:59;;;;;;;;;;;;;;;28.98;12.15;98843.97;9987859;29;20046;-86
2022/04/28 11:27:21;;;;;;;4.68;2.10;;;;;;;29.20;11.61;98832.72;9993241;29;19928;-86
2022/04/28 11:32:51;;;;;;;4.43;2.08;;;;;;;28.56;12.09;98824.75;10018835;29;20494;-88
2022/04/28 11:38:12;;;;;;;4.60;2.47;;;;;;;27.52;12.30;98813.81;9970664;29;20053;-88
2022/04/28 11:43:36;;;;;;;5.20;2.00;;;;;;;26.74;13.07;98817.38;9955425;29;20046;-86
2022/04/28 11:48:57;;;;;;;4.38;2.10;;;;;;;27.94;13.27;98813.81;9961001;29;20110;-86
2022/04/28 11:54:23;;;;;;;4.55;2.28;;;;;;;27.78;12.79;98825.75;9974568;29;20490;-87
2022/04/28 11:59:44;;;;;;;3.83;2.10;;;;;;;26.17;14.50;98824.69;9949322;29;20050;-87
2022/04/28 12:05:19;;;;;;;4.85;1.92;;;;;;;26.41;14.67;98822.41;9948610;29;20053;-86
2022/04/28 12:16:22;;;;;;;2.67;1.80;;;;;;;27.59;14.35;98809.63;9950999;29;20055;-85
2022/04/28 12:21:43;;;;;;;3.58;2.10;;;;;;;26.80;14.42;98811.75;9961318;29;20050;-86
2022/04/28 12:27:07;;;;;;;2.90;2.00;;;;;;;25.75;15.61;98825.13;9947947;29;20060;-86
2022/04/28 12:32:29;;;;;;;3.90;2.08;;;;;;;25.32;15.89;98821.19;9947927;29;20050;-86
2022/04/28 12:38:02;;;;;;;2.88;1.90;;;;;;;25.86;16.04;98811.81;9950288;29;20050;-86
2022/04/28 12:43:41;;;;;;;2.55;1.98;;;;;;;26.48;15.54;98809.66;9960754;29;20129;-86
2022/04/28 12:49:07;;;;;;;4.85;1.67;;;;;;;26.45;15.00;98796.75;9948164;29;20478;-86
2022/04/28 12:54:37;;;;;;;3.55;2.05;;;;;;;26.19;15.27;98808.31;9947043;29;20482;-86
2022/04/28 13:00:04;;;;;;;5.10;1.80;;;;;;;25.61;15.28;98805.47;9945229;29;20073;-85
2022/04/28 13:05:27;;;;;;;4.97;2.08;;;;;;;25.33;15.98;98799.06;9946127;29;20078;-86
2022/04/28 13:10:55;;;;;;;2.92;2.00;;;;;;;25.07;16.44;98808.38;9949468;29;20153;-86
2022/04/28 13:16:17;;;;;;;3.90;2.00;;;;;;;24.59;16.51;98784.88;9959028;29;20050;-86
2022/04/28 13:21:40;;;;;;;2.83;1.90;;;;;;;24.02;16.72;98797.44;9946355;29;20387;-85
2022/04/28 13:27:00;;;;;;;5.50;2.50;;;;;;;23.85;17.22;98781.22;9971309;29;20050;-85
2022/04/28 13:32:22;;;;;;;3.60;2.40;;;;;;;23.95;17.42;98770.88;9946127;29;20065;-86
2022/04/28 13:37:43;;;;;;;8.00;2.80;;;;;;;24.15;17.71;98772.88;9946067;29;20125;-86
2022/04/28 13:43:04;;;;;;;4.85;2.15;;;;;;;24.08;17.57;98768.38;9945473;29;20099;-85
2022/04/28 13:48:25;;;;;;;6.55;2.30;;;;;;;23.57;18.06;98761.78;9987461;29;20079;-86
2022/04/28 13:53:46;;;;;;;7.53;2.80;;;;;;;23.70;18.25;98754.38;9961319;29;20053;-86
2022/04/28 13:59:07;;;;;;;8.10;2.88;;;;;;;24.05;19.05;98752.59;9962538;29;20452;-85
2022/04/28 14:04:27;;;;;;;3.65;2.40;;;;;;;24.32;18.17;98748.41;9957209;29;20046;-86
2022/04/28 14:09:48;;;;;;;3.30;1.90;;;;;;;24.02;18.12;98754.66;9956709;29;20475;-86
2022/04/28 14:15:09;;;;;;;8.23;2.60;;;;;;;23.47;18.05;98755.03;9964887;29;20117;-86
2022/04/28 14:20:30;;;;;;;4.97;2.20;;;;;;;23.31;18.68;98750.25;9993990;29;20049;-87
2022/04/28 14:25:50;;;;;;;4.43;2.47;;;;;;;23.40;18.93;98748.41;9994105;29;20046;-87
2022/04/28 14:31:11;;;;;;;4.85;2.20;;;;;;;23.04;18.88;98748.63;10006412;29;20111;-87
2022/04/28 14:36:52;;;;;;;4.72;2.67;;;;;;;22.68;19.40;98744.50;10006405;29;20057;-87
2022/04/28 14:42:12;;;;;;;7.18;2.13;;;;;;;22.26;19.54;98736.59;10006439;29;20110;-87
2022/04/28 14:47:43;;;;;;;4.57;2.35;;;;;;;21.60;20.25;98731.88;10019053;29;20050;-87
2022/04/28 14:53:07;;;;;;;7.57;2.65;;;;;;;21.49;20.24;98744.22;9999486;29;20053;-87
2022/04/28 14:58:28;;;;;;;2.88;1.98;;;;;;;21.32;20.85;98746.41;9956442;29;20053;-86
2022/04/28 15:03:49;;;;;;;4.63;2.72;;;;;;;21.33;21.17;98738.66;9943138;29;20075;-86
2022/04/28 15:09:10;;;;;;;6.45;2.28;;;;;;;21.71;21.02;98739.44;9943603;29;20058;-87
2022/04/28 15:14:32;;;;;;;4.18;2.30;;;;;;;21.95;20.93;98739.66;9959629;29;20053;-87
2022/04/28 15:19:53;;;;;;;3.70;2.42;;;;;;;21.67;21.15;98736.44;9957606;29;20046;-87
2022/04/28 15:25:13;;;;;;;3.20;2.35;;;;;;;21.57;21.73;98738.88;9966035;29;20042;-87
2022/04/28 15:30:34;;;;;;;4.88;2.53;;;;;;;21.65;21.62;98742.06;10000216;29;20054;-86
2022/04/28 15:35:56;;;;;;;3.58;2.30;;;;;;;21.82;21.52;98741.31;10000320;29;20050;-87
2022/04/28 15:41:17;;;;;;;5.78;2.53;;;;;;;21.41;21.45;98739.69;10025497;29;20053;-82
2022/04/28 15:46:39;;;;;;;3.53;2.10;;;;;;;21.35;21.57;98733.03;10012388;29;20534;-81
2022/04/28 15:52:02;;;;;;;5.00;2.60;;;;;;;21.21;21.72;98752.28;9986556;29;20183;-82
2022/04/28 15:57:22;;;;;;;3.88;2.58;;;;;;;20.84;22.01;98737.31;9986994;29;20042;-82
2022/04/28 16:02:43;;;;;;;5.90;2.90;;;;;;;20.46;22.49;98744.13;9985310;29;20092;-80
2022/04/28 16:08:04;;;;;;;5.00;2.97;;;;;;;20.12;22.68;98744.00;9948954;29;20073;-81
2022/04/28 16:13:25;;;;;;;8.77;3.20;;;;;;;19.84;23.22;98746.25;9948367;29;20050;-82
2022/04/28 16:18:46;;;;;;;7.25;5.18;;;;;;;19.67;23.63;98750.41;9960892;29;20069;-82
2022/04/28 16:24:08;;;;;;;7.60;3.90;;;;;;;19.60;24.05;98750.78;9948138;29;20054;-84
2022/04/28 16:29:28;;;;;;;6.07;3.65;;;;;;;19.59;24.29;98747.22;9947819;29;20118;-84
2022/04/28 16:34:49;;;;;;;6.20;3.42;;;;;;;19.60;24.71;98751.50;9959947;29;20129;-82
2022/04/28 16:40:14;;;;;;;7.32;3.92;;;;;;;19.53;24.70;98752.56;9948456;29;20448;-85
2022/04/28 16:45:35;;;;;;;6.35;4.45;;;;;;;19.53;24.82;98746.88;9972398;29;20050;-83
2022/04/28 16:50:58;;;;;;;4.57;3.30;;;;;;;19.50;24.81;98750.25;9972270;29;20043;-82
2022/04/28 16:56:18;;;;;;;5.53;3.42;;;;;;;19.45;25.04;98747.22;9978804;29;20053;-85
2022/04/28 17:01:40;;;;;;;8.10;3.20;;;;;;;19.34;24.91;98753.03;9957696;29;20409;-85
2022/04/28 17:07:02;;;;;;;4.53;3.22;;;;;;;19.27;24.91;98759.75;10009473;29;20046;-85
2022/04/28 17:12:23;;;;;;;5.97;3.30;;;;;;;19.16;25.30;98759.25;10022119;29;20383;-86
2022/04/28 17:17:44;;;;;;;5.53;3.33;;;;;;;18.97;25.55;98768.19;10008877;29;20405;-85
2022/04/28 17:23:06;;;;;;;10.10;3.35;;;;;;;18.70;25.99;98768.19;10008803;29;20534;-85
2022/04/28 17:28:27;;;;;;;5.25;3.50;;;;;;;18.50;26.40;98774.22;9983316;29;20042;-86
2022/04/28 17:33:48;;;;;;;5.60;3.75;;;;;;;18.22;26.57;98781.19;10017507;29;20503;-86
2022/04/28 17:39:10;;;;;;;6.45;3.92;;;;;;;18.02;27.00;98783.66;9977654;29;20481;-87
2022/04/28 17:44:32;;;;;;;6.07;3.38;;;;;;;17.80;27.27;98785.25;9976458;29;20077;-88
2022/04/28 17:49:52;;;;;;;4.97;3.60;;;;;;;17.65;27.54;98798.53;9964850;29;20049;-85
2022/04/28 18:00:54;;;;;;;5.40;3.88;;;;;;;17.32;28.09;98803.69;9992515;29;20054;-85
2022/04/28 18:06:15;;;;;;;6.53;3.67;;;;;;;17.15;28.43;98816.13;9971887;29;20042;-86
2022/04/28 18:11:35;;;;;;;7.15;3.53;;;;;;;17.01;28.70;98818.84;9976794;29;20050;-87
2022/04/28 18:16:57;;;;;;;5.65;4.10;;;;;;;16.83;29.18;98815.66;9993573;29;20559;-85
2022/04/28 18:22:18;;;;;;;6.43;3.60;;;;;;;16.67;29.66;98825.19;10001416;29;20042;-84
2022/04/28 18:27:38;;;;;;;8.05;4.38;;;;;;;16.48;30.18;98826.91;9994495;29;20490;-82
2022/04/28 18:33:00;;;;;;;5.80;3.83;;;;;;;16.38;30.31;98840.34;10006507;29;20106;-82
2022/04/28 18:49:46;;;;;;;9.48;6.05;;;;;;;15.99;31.32;98862.53;10009229;29;20049;-85
2022/04/28 18:55:07;;;;;;;8.23;6.03;;;;;;;15.84;31.65;98871.44;9995145;29;20098;-84
2022/04/28 19:00:28;;;;;;;9.48;5.68;;;;;;;15.72;31.79;98874.19;9988607;29;20085;-80
2022/04/28 19:05:49;;;;;;;8.38;5.75;;;;;;;15.58;31.97;98876.78;10013749;29;20114;-79
2022/04/28 19:11:09;;;;;;;9.60;5.40;;;;;;;15.52;32.44;98887.63;10000892;29;20454;-83
2022/04/28 19:16:30;;;;;;;10.85;6.28;;;;;;;15.41;32.73;98886.22;10000554;29;20046;-83
2022/04/28 19:21:52;;;;;;;11.52;6.30;;;;;;;15.33;32.97;98896.19;10013108;29;20053;-83
2022/04/28 19:27:18;;;;;;;7.82;5.88;;;;;;;15.22;33.35;98899.66;10000349;29;20054;-81
2022/04/28 19:32:43;;;;;;;10.40;5.88;;;;;;;15.15;33.61;98899.28;10012632;29;20429;-83
2022/04/28 19:38:08;;;;;;;13.25;6.30;;;;;;;15.08;33.93;98903.00;9984864;29;20126;-80
2022/04/28 19:43:29;;;;;;;8.45;6.50;;;;;;;15.05;34.34;98909.81;9962526;29;20120;-79
2022/04/28 19:48:50;;;;;;;8.45;6.88;;;;;;;14.95;34.22;98911.19;9949955;29;20395;-79
2022/04/28 19:54:11;;;;;;;8.73;6.00;;;;;;;14.82;34.84;98913.16;9963826;29;20043;-79
2022/04/28 19:59:32;;;;;;;8.65;6.13;;;;;;;14.75;34.63;98913.31;9997677;29;20054;-78
2022/04/28 20:04:53;;;;;;;16.75;11.23;;;;;;;14.70;34.99;98911.59;9968213;29;20463;-78
2022/04/28 20:10:14;;;;;;;12.32;7.53;;;;;;;14.62;35.36;98911.00;9970585;29;20047;-78
2022/04/28 20:15:36;;;;;;;10.07;7.15;;;;;;;14.55;35.68;98913.38;10002094;29;20058;-78
2022/04/28 20:20:58;;;;;;;9.35;6.60;;;;;;;14.42;35.86;98924.34;9995295;29;20439;-78
2022/04/28 20:26:20;;;;;;;9.48;7.72;;;;;;;14.32;36.02;98922.28;9987885;29;20057;-78
2022/04/28 20:31:41;;;;;;;8.68;6.93;;;;;;;14.22;36.33;98918.75;10017217;29;20050;-79
2022/04/28 20:37:02;;;;;;;9.70;6.38;;;;;;;14.17;36.55;98930.28;9999420;29;20079;-80
2022/04/28 20:42:23;;;;;;;10.70;6.20;;;;;;;14.18;36.96;98935.28;10049869;29;20042;-78
2022/04/28 20:47:44;;;;;;;9.75;5.78;;;;;;;14.25;37.05;98936.47;10034672;29;20053;-82
2022/04/28 20:53:06;;;;;;;8.23;6.13;;;;;;;14.31;36.79;98937.66;10020528;29;20085;-82
2022/04/28 20:58:27;;;;;;;12.55;6.00;;;;;;;14.30;37.03;98932.63;10017601;29;20054;-79
2022/04/28 21:03:47;;;;;;;12.05;8.38;;;;;;;14.24;37.21;98937.81;10027963;29;20030;-80
2022/04/28 21:09:09;;;;;;;9.10;6.53;;;;;;;14.19;37.42;98938.88;10042244;29;20106;-81
2022/04/28 21:14:29;;;;;;;10.88;6.90;;;;;;;14.12;37.71;98940.47;10068377;29;20037;-82
2022/04/28 21:19:50;;;;;;;9.52;6.25;;;;;;;14.02;37.87;98943.28;10067605;29;20074;-82
2022/04/28 21:25:12;;;;;;;21.45;14.82;;;;;;;13.88;38.19;98936.63;10043011;29;20034;-81
2022/04/28 21:30:34;;;;;;;10.27;6.55;;;;;;;13.78;38.36;98940.75;10054876;29;20090;-81
2022/04/28 21:35:56;;;;;;;11.48;6.32;;;;;;;13.76;38.57;98946.97;10030266;29;20049;-82
2022/04/28 21:41:17;;;;;;;10.90;6.97;;;;;;;13.73;38.45;98934.13;10068724;29;20058;-82
2022/04/28 21:46:38;;;;;;;11.23;7.30;;;;;;;13.57;38.74;98935.72;10055515;29;20038;-80
2022/04/28 21:52:00;;;;;;;9.18;6.70;;;;;;;13.49;38.97;98943.50;10042641;29;20026;-80
2022/04/28 21:57:22;;;;;;;12.23;6.40;;;;;;;13.43;39.32;98941.75;10055140;29;20045;-82
2022/04/28 22:02:43;;;;;;;7.80;6.05;;;;;;;13.42;39.68;98950.75;10042206;29;20026;-82
2022/04/28 22:13:46;;;;;;;7.82;6.15;;;;;;;13.30;40.28;98947.75;10043754;29;20053;-82
2022/04/28 22:19:07;;;;;;;12.65;6.75;;;;;;;13.27;40.22;98951.72;10041897;29;20065;-80
2022/04/28 22:24:28;;;;;;;8.43;5.97;;;;;;;13.29;40.51;98948.34;10054811;29;20033;-82
2022/04/28 22:35:43;;;;;;;10.03;7.07;;;;;;;13.33;40.56;98955.00;10045170;29;20034;-81
2022/04/28 22:41:06;;;;;;;10.07;5.97;;;;;;;13.32;40.88;98959.13;10053938;29;20056;-79
2022/04/28 22:46:27;;;;;;;9.07;6.57;;;;;;;13.32;41.00;98949.97;10066452;29;20053;-81
2022/04/28 22:51:48;;;;;;;7.25;6.05;;;;;;;13.32;40.89;98942.31;10065684;29;20045;-81
2022/04/28 22:57:09;;;;;;;11.98;7.60;;;;;;;13.31;40.86;98946.41;10040816;29;20046;-78
2022/04/28 23:02:30;;;;;;;11.27;7.30;;;;;;;13.31;40.83;98946.41;10052994;29;20129;-81
2022/04/28 23:07:51;;;;;;;14.45;8.35;;;;;;;13.33;40.78;98948.66;10040546;29;20054;-81
2022/04/28 23:13:12;;;;;;;13.45;7.40;;;;;;;13.27;41.01;98943.31;10040866;29;20073;-81
2022/04/28 23:18:35;;;;;;;10.00;6.90;;;;;;;13.19;41.12;98942.69;10053986;29;20078;-81
2022/04/28 23:23:56;;;;;;;9.48;6.85;;;;;;;13.11;41.52;98944.84;10053109;29;20045;-81
2022/04/28 23:29:17;;;;;;;10.98;7.32;;;;;;;13.07;41.42;98944.53;10052948;29;20117;-82
2022/04/28 23:40:17;;;;;;;10.82;7.18;;;;;;;13.13;41.58;98933.81;10052718;29;20053;-82
2022/04/28 23:45:39;;;;;;;12.02;7.55;;;;;;;13.12;41.44;98932.31;10046090;29;20042;-82
2022/04/28 23:50:59;;;;;;;12.80;8.57;;;;;;;13.10;41.61;98926.56;10059485;29;20034;-82
2022/04/28 23:56:21;;;;;;;11.93;7.82;;;;;;;13.01;41.57;98927.25;10071196;29;20410;-82
